Time;durP1;ratioP1;P1;durP2;ratioP2;P2;SDS_P1;SDS_P2;PMS_P1;PMS_P2;Temp;Humidity;BMP_temperature;BMP_pressure;BME280_temperature;BME280_humidity;BME280_pressure;Samples;Min_cycle;Max_cycle;Signal;HPM_P1;HPM_P2
2021/01/31 00:01:03;;;;;;;4.20;3.13;;;5.40;99.90;;;;;;5096578;28;20198;-70
2021/01/31 00:03:31;;;;;;;4.38;2.78;;;5.50;99.90;;;;;;5096571;28;20222;-70
2021/01/31 00:06:00;;;;;;;5.10;3.38;;;5.50;99.90;;;;;;5096264;28;20202;-69
2021/01/31 00:08:27;;;;;;;4.45;2.80;;;5.50;99.90;;;;;;5096470;28;20205;-70
2021/01/31 00:10:55;;;;;;;3.92;2.95;;;5.60;99.90;;;;;;5096165;28;20209;-70
2021/01/31 00:13:23;;;;;;;5.20;3.20;;;5.70;99.90;;;;;;5095989;28;20708;-69
2021/01/31 00:15:51;;;;;;;5.35;2.80;;;5.70;99.90;;;;;;5096067;28;20296;-70
2021/01/31 00:18:20;;;;;;;6.97;3.30;;;5.70;99.90;;;;;;5096176;28;20642;-69
2021/01/31 00:20:48;;;;;;;6.05;3.67;;;5.60;99.90;;;;;;5096084;28;20198;-69
2021/01/31 00:23:15;;;;;;;4.45;3.65;;;5.70;99.90;;;;;;5096089;28;20230;-70
2021/01/31 00:25:43;;;;;;;6.20;4.18;;;5.70;99.90;;;;;;5095922;28;20202;-69
2021/01/31 00:28:10;;;;;;;8.02;4.55;;;5.50;99.90;;;;;;5095868;28;20202;-69
2021/01/31 00:30:38;;;;;;;7.35;3.80;;;5.40;99.90;;;;;;5095713;28;20206;-69
2021/01/31 00:33:06;;;;;;;5.03;3.53;;;5.00;99.90;;;;;;5095883;28;20270;-69
2021/01/31 00:35:36;;;;;;;6.10;3.28;;;4.90;99.90;;;;;;5095452;28;20248;-70
2021/01/31 00:38:03;;;;;;;7.88;3.65;;;4.80;99.90;;;;;;5095826;28;20206;-69
2021/01/31 00:40:29;;;;;;;8.15;3.65;;;4.90;99.90;;;;;;5095883;28;20542;-69
2021/01/31 00:42:57;;;;;;;6.82;3.90;;;5.00;99.90;;;;;;5095479;28;20824;-69
2021/01/31 00:45:25;;;;;;;5.28;3.63;;;5.10;99.90;;;;;;5095792;28;20258;-69
2021/01/31 00:47:51;;;;;;;5.75;3.22;;;5.10;99.90;;;;;;5095335;28;20305;-69
2021/01/31 00:50:19;;;;;;;5.57;3.30;;;5.10;99.90;;;;;;5096212;28;20271;-69
2021/01/31 00:52:45;;;;;;;7.15;3.95;;;5.00;99.90;;;;;;5095917;28;20707;-69
2021/01/31 00:55:13;;;;;;;6.70;3.95;;;5.00;99.90;;;;;;5096173;28;20288;-69
2021/01/31 00:57:39;;;;;;;6.55;3.65;;;4.90;99.90;;;;;;5095882;28;20574;-69
2021/01/31 01:00:14;;;;;;;6.35;4.30;;;4.80;99.90;;;;;;5094674;28;20313;-69
2021/01/31 01:02:41;;;;;;;4.00;3.20;;;4.70;99.90;;;;;;5095770;28;20227;-70
2021/01/31 01:05:08;;;;;;;9.38;5.05;;;4.90;99.90;;;;;;5095630;28;20202;-69
2021/01/31 01:07:35;;;;;;;8.30;3.60;;;5.00;99.90;;;;;;5095451;28;20202;-69
2021/01/31 01:10:01;;;;;;;5.63;3.60;;;5.20;99.90;;;;;;5095501;28;20285;-69
2021/01/31 01:12:27;;;;;;;5.47;3.72;;;5.30;99.90;;;;;;5095299;28;20225;-69
2021/01/31 01:14:54;;;;;;;10.32;4.93;;;5.40;99.90;;;;;;5095380;28;20640;-69
2021/01/31 01:17:21;;;;;;;5.45;3.50;;;5.40;99.90;;;;;;5095063;28;20292;-69
2021/01/31 01:19:47;;;;;;;5.53;3.70;;;5.20;99.90;;;;;;5095988;28;20226;-69
2021/01/31 01:22:13;;;;;;;4.68;2.75;;;5.20;99.90;;;;;;5095062;28;20230;-69
2021/01/31 01:24:40;;;;;;;6.13;4.18;;;5.40;99.90;;;;;;5095270;28;20206;-69
2021/01/31 01:27:06;;;;;;;9.05;4.10;;;5.50;99.90;;;;;;5094916;28;20204;-69
2021/01/31 01:29:32;;;;;;;10.95;3.72;;;5.50;99.90;;;;;;5095295;28;20219;-70
2021/01/31 01:31:59;;;;;;;7.35;3.90;;;5.20;99.90;;;;;;5095191;28;20228;-69
2021/01/31 01:34:26;;;;;;;6.78;3.75;;;5.30;99.90;;;;;;5094897;28;20201;-69
2021/01/31 01:36:52;;;;;;;4.45;3.65;;;5.30;99.90;;;;;;5094953;28;20301;-69
2021/01/31 01:39:18;;;;;;;6.10;3.65;;;5.30;99.90;;;;;;5095277;28;20308;-69
2021/01/31 01:41:46;;;;;;;6.55;3.35;;;5.10;99.90;;;;;;5095122;28;20198;-70
2021/01/31 01:44:13;;;;;;;5.85;3.50;;;5.20;99.90;;;;;;5095240;28;20209;-69
2021/01/31 01:46:43;;;;;;;5.82;3.85;;;5.30;99.90;;;;;;5094710;28;20220;-69
2021/01/31 01:49:22;;;;;;;7.30;3.65;;;5.30;99.90;;;;;;5095099;28;20204;-69
2021/01/31 01:51:55;;;;;;;6.28;4.00;;;5.30;99.90;;;;;;5094827;28;20206;-70
2021/01/31 01:54:27;;;;;;;7.88;4.20;;;5.20;99.90;;;;;;5094806;28;20188;-69
2021/01/31 01:56:58;;;;;;;8.35;4.47;;;5.30;99.90;;;;;;5094510;28;20202;-69
2021/01/31 01:59:25;;;;;;;7.75;4.10;;;5.30;99.90;;;;;;5094572;28;20234;-69
2021/01/31 02:02:02;;;;;;;6.28;3.78;;;5.20;99.90;;;;;;5094332;28;20216;-69
2021/01/31 02:04:29;;;;;;;4.50;3.25;;;5.10;99.90;;;;;;5094667;28;20208;-69
2021/01/31 02:06:57;;;;;;;4.13;2.95;;;4.90;99.90;;;;;;5094061;28;20258;-69
2021/01/31 02:09:23;;;;;;;9.15;3.92;;;4.90;99.90;;;;;;5094559;28;20286;-69
2021/01/31 02:11:53;;;;;;;7.55;4.15;;;5.00;99.90;;;;;;5093950;28;20727;-69
2021/01/31 02:14:19;;;;;;;6.18;3.00;;;5.10;99.90;;;;;;5094796;28;20216;-69
2021/01/31 02:16:53;;;;;;;8.15;4.57;;;5.10;99.90;;;;;;5094294;28;20243;-69
2021/01/31 02:19:57;;;;;;;9.07;4.78;;;5.20;99.90;;;;;;5094120;28;20221;-70
2021/01/31 02:22:53;;;;;;;8.13;4.25;;;5.30;99.90;;;;;;5094467;28;20321;-69
2021/01/31 02:25:45;;;;;;;7.15;4.55;;;5.30;99.90;;;;;;5094294;28;20206;-69
2021/01/31 02:28:42;;;;;;;6.50;3.78;;;5.20;99.90;;;;;;5079679;28;20206;-69
2021/01/31 02:31:27;;;;;;;6.15;3.17;;;5.30;99.90;;;;;;5094311;28;20572;-69
2021/01/31 02:33:59;;;;;;;5.43;3.83;;;5.30;99.90;;;;;;5094018;28;20221;-69
2021/01/31 02:36:34;;;;;;;6.47;3.72;;;5.20;99.90;;;;;;5094123;28;20197;-69
2021/01/31 02:39:09;;;;;;;6.47;3.78;;;5.20;99.90;;;;;;5094019;28;20228;-69
2021/01/31 02:41:42;;;;;;;7.70;3.80;;;5.20;99.90;;;;;;5094104;28;20288;-69
2021/01/31 02:44:13;;;;;;;7.60;4.38;;;5.20;99.90;;;;;;5094189;28;20194;-69
2021/01/31 02:46:42;;;;;;;6.78;3.53;;;5.20;99.90;;;;;;5093395;28;20210;-69
2021/01/31 02:49:16;;;;;;;9.55;4.28;;;5.20;99.90;;;;;;5093581;28;20197;-69
2021/01/31 02:51:48;;;;;;;6.40;3.63;;;5.20;99.90;;;;;;5093551;28;20212;-70
2021/01/31 02:54:19;;;;;;;6.65;3.30;;;5.20;99.90;;;;;;5093677;28;20281;-69
2021/01/31 02:56:51;;;;;;;4.13;2.92;;;5.20;99.90;;;;;;5093321;28;20213;-69
2021/01/31 02:59:21;;;;;;;7.53;3.72;;;5.20;99.90;;;;;;5093570;28;20314;-69
2021/01/31 03:01:55;;;;;;;5.78;3.80;;;5.30;99.90;;;;;;5093470;28;20563;-69
2021/01/31 03:04:28;;;;;;;8.88;4.28;;;5.30;99.90;;;;;;5093638;28;20194;-69
2021/01/31 03:06:58;;;;;;;6.15;4.25;;;5.40;99.90;;;;;;5093353;28;20278;-69
2021/01/31 03:09:31;;;;;;;7.05;4.20;;;5.30;99.90;;;;;;5093501;28;20198;-69
2021/01/31 03:12:02;;;;;;;7.05;3.92;;;5.30;99.90;;;;;;5093361;28;20711;-69
2021/01/31 03:14:32;;;;;;;6.53;3.80;;;5.20;99.90;;;;;;5093542;28;20629;-69
2021/01/31 03:17:04;;;;;;;7.40;4.30;;;5.20;99.90;;;;;;5093355;28;20228;-69
2021/01/31 03:19:37;;;;;;;7.68;4.35;;;5.30;99.90;;;;;;5093416;28;20228;-69
2021/01/31 03:22:08;;;;;;;6.95;4.47;;;5.40;99.90;;;;;;5093342;28;20226;-69
2021/01/31 03:24:37;;;;;;;4.95;3.03;;;5.40;99.90;;;;;;5096535;28;20678;-69
2021/01/31 03:27:08;;;;;;;5.75;3.42;;;5.40;99.90;;;;;;5096958;28;20214;-69
2021/01/31 03:29:34;;;;;;;5.32;3.70;;;5.40;99.90;;;;;;5097284;28;20206;-69
2021/01/31 03:32:06;;;;;;;5.63;3.40;;;5.50;99.90;;;;;;5097171;28;20218;-69
2021/01/31 03:34:38;;;;;;;6.15;3.80;;;5.60;99.90;;;;;;5097164;28;20186;-69
2021/01/31 03:37:07;;;;;;;6.80;3.80;;;5.60;99.90;;;;;;5096734;28;20664;-69
2021/01/31 03:39:36;;;;;;;7.38;4.13;;;5.60;99.90;;;;;;5096693;28;20226;-69
2021/01/31 03:42:02;;;;;;;6.80;3.88;;;5.70;99.90;;;;;;5096988;28;20275;-69
2021/01/31 03:44:31;;;;;;;9.63;4.10;;;5.80;99.90;;;;;;5097028;28;20292;-69
2021/01/31 03:47:04;;;;;;;5.90;3.22;;;5.80;99.90;;;;;;5096374;28;20210;-69
2021/01/31 03:49:38;;;;;;;6.38;4.47;;;5.80;99.90;;;;;;5096933;28;20201;-69
2021/01/31 03:52:04;;;;;;;6.18;3.83;;;5.80;99.90;;;;;;5096667;28;20221;-69
2021/01/31 03:54:31;;;;;;;8.68;4.55;;;5.80;99.90;;;;;;5096876;28;20198;-69
2021/01/31 03:57:01;;;;;;;9.18;4.50;;;5.70;99.90;;;;;;5096332;28;20202;-69
2021/01/31 03:59:31;;;;;;;7.13;4.05;;;5.60;99.90;;;;;;5096490;28;20308;-69
2021/01/31 04:01:59;;;;;;;11.13;4.30;;;5.50;99.90;;;;;;5096672;28;20232;-69
2021/01/31 04:04:33;;;;;;;6.72;4.72;;;5.30;99.90;;;;;;5096727;28;20610;-69
2021/01/31 04:07:04;;;;;;;6.85;3.85;;;5.10;99.90;;;;;;5096530;28;20609;-69
2021/01/31 04:09:33;;;;;;;6.57;4.53;;;4.70;99.90;;;;;;5096555;28;20209;-69
2021/01/31 04:12:02;;;;;;;7.97;3.67;;;4.60;99.90;;;;;;5096347;28;20222;-69
2021/01/31 04:14:36;;;;;;;5.97;4.10;;;4.60;99.90;;;;;;5096485;28;20198;-69
2021/01/31 04:17:02;;;;;;;7.43;4.38;;;4.70;99.90;;;;;;5096377;28;20197;-69
2021/01/31 04:19:29;;;;;;;8.68;3.75;;;4.60;99.90;;;;;;5096410;28;20224;-69
2021/01/31 04:21:55;;;;;;;7.70;4.65;;;4.70;99.90;;;;;;5096068;28;20668;-69
2021/01/31 04:24:22;;;;;;;8.05;4.18;;;4.50;99.90;;;;;;5095907;28;20202;-70
2021/01/31 04:26:48;;;;;;;7.25;4.68;;;4.50;99.90;;;;;;5095939;28;20205;-69
2021/01/31 04:29:15;;;;;;;6.43;3.58;;;4.60;99.90;;;;;;5096328;28;20285;-69
2021/01/31 04:31:41;;;;;;;10.10;5.07;;;4.60;99.90;;;;;;5096069;28;20202;-70
2021/01/31 04:34:08;;;;;;;10.63;4.40;;;4.60;99.90;;;;;;5095665;28;20227;-69
2021/01/31 04:36:34;;;;;;;8.25;4.25;;;4.60;99.90;;;;;;5095811;28;20292;-69
2021/01/31 04:39:00;;;;;;;7.15;4.15;;;4.60;99.90;;;;;;5096005;28;20222;-69
2021/01/31 04:41:33;;;;;;;10.63;4.88;;;4.70;99.90;;;;;;5095766;28;20209;-69
2021/01/31 04:44:00;;;;;;;5.97;3.67;;;4.50;99.90;;;;;;5096263;28;20642;-69
2021/01/31 04:46:38;;;;;;;8.15;3.90;;;4.40;99.90;;;;;;5095888;28;20301;-69
2021/01/31 04:49:11;;;;;;;6.72;4.85;;;4.50;99.90;;;;;;5096091;28;20239;-69
2021/01/31 04:51:55;;;;;;;8.25;4.30;;;4.60;99.90;;;;;;5096151;28;20205;-70
2021/01/31 04:54:31;;;;;;;8.45;4.45;;;4.60;99.90;;;;;;5095978;28;20282;-69
2021/01/31 04:57:08;;;;;;;8.88;4.20;;;4.70;99.90;;;;;;5095754;28;20235;-69
2021/01/31 04:59:38;;;;;;;5.50;3.40;;;4.80;99.90;;;;;;5095694;28;20225;-69
2021/01/31 05:02:10;;;;;;;6.32;4.28;;;4.80;99.90;;;;;;5095840;28;20610;-69
2021/01/31 05:04:48;;;;;;;8.13;4.40;;;4.90;99.90;;;;;;5095719;28;20202;-69
2021/01/31 05:07:15;;;;;;;9.70;4.43;;;4.90;99.90;;;;;;5095445;28;20257;-69
2021/01/31 05:09:41;;;;;;;6.95;4.15;;;4.90;99.90;;;;;;5095420;28;20202;-69
2021/01/31 05:12:15;;;;;;;7.50;4.25;;;4.80;99.90;;;;;;5095402;28;20580;-69
2021/01/31 05:14:53;;;;;;;8.60;4.90;;;4.90;99.90;;;;;;5095437;28;20186;-69
2021/01/31 05:17:19;;;;;;;7.75;3.85;;;4.70;99.90;;;;;;5094944;28;20292;-69
2021/01/31 05:19:46;;;;;;;8.70;4.65;;;4.70;99.90;;;;;;5094994;28;20251;-69
2021/01/31 05:22:17;;;;;;;7.60;4.05;;;4.60;99.90;;;;;;5095088;28;20321;-69
2021/01/31 05:24:43;;;;;;;8.98;4.75;;;4.50;99.90;;;;;;5095360;28;20197;-69
2021/01/31 05:27:11;;;;;;;9.10;4.70;;;4.40;99.90;;;;;;5094852;28;20565;-69
2021/01/31 05:29:40;;;;;;;9.80;4.35;;;4.30;99.90;;;;;;5095054;28;20590;-69
2021/01/31 05:32:09;;;;;;;11.50;5.10;;;4.30;99.90;;;;;;5094945;28;20316;-69
2021/01/31 05:34:39;;;;;;;11.75;4.22;;;4.30;99.90;;;;;;5095071;28;20206;-69
2021/01/31 05:37:08;;;;;;;7.65;5.40;;;4.40;99.90;;;;;;5094460;28;20209;-69
2021/01/31 05:39:41;;;;;;;10.98;4.35;;;4.30;99.90;;;;;;5094701;28;20294;-69
2021/01/31 05:42:13;;;;;;;6.80;3.70;;;4.40;99.90;;;;;;5094914;28;20222;-69
2021/01/31 05:44:39;;;;;;;8.05;4.60;;;4.50;99.90;;;;;;5094557;28;20191;-69
2021/01/31 05:47:17;;;;;;;7.03;3.85;;;4.70;99.90;;;;;;5093707;28;20209;-69
2021/01/31 05:49:45;;;;;;;7.65;3.72;;;4.90;99.90;;;;;;5094608;28;20198;-69
2021/01/31 05:52:32;;;;;;;7.43;4.32;;;5.10;99.90;;;;;;5094578;28;20561;-69
2021/01/31 05:54:59;;;;;;;7.05;4.55;;;5.00;99.90;;;;;;5094610;28;20201;-69
2021/01/31 05:57:29;;;;;;;11.07;4.40;;;4.80;99.90;;;;;;5094293;28;20198;-69
2021/01/31 05:59:56;;;;;;;9.52;4.57;;;4.80;99.90;;;;;;5094790;28;20639;-69
2021/01/31 06:02:24;;;;;;;8.80;4.80;;;4.50;99.90;;;;;;5094418;28;20262;-69
2021/01/31 06:05:10;;;;;;;11.68;3.72;;;4.50;99.90;;;;;;5094090;28;20201;-69
2021/01/31 06:07:38;;;;;;;6.88;4.40;;;4.30;99.90;;;;;;5094130;28;20676;-69
2021/01/31 06:10:11;;;;;;;9.43;4.63;;;4.30;99.90;;;;;;5094495;28;20225;-69
2021/01/31 06:12:39;;;;;;;8.68;4.03;;;4.30;99.90;;;;;;5094310;28;20282;-69
2021/01/31 06:15:08;;;;;;;8.32;4.35;;;4.30;99.90;;;;;;5093922;28;20205;-69
2021/01/31 06:17:35;;;;;;;7.53;4.57;;;4.40;99.90;;;;;;5093930;28;20198;-69
2021/01/31 06:20:06;;;;;;;9.20;4.32;;;4.60;99.90;;;;;;5094187;28;20267;-69
2021/01/31 06:22:42;;;;;;;12.85;5.07;;;4.70;99.90;;;;;;5094009;28;20222;-69
2021/01/31 06:25:14;;;;;;;8.35;4.90;;;4.70;99.90;;;;;;5093961;28;20246;-69
2021/01/31 06:27:42;;;;;;;8.48;5.22;;;4.70;99.90;;;;;;5093799;28;20210;-69
2021/01/31 06:30:23;;;;;;;9.20;4.43;;;4.60;99.90;;;;;;5093897;28;20288;-69
2021/01/31 06:32:52;;;;;;;8.40;3.88;;;4.60;99.90;;;;;;5093852;28;20304;-69
2021/01/31 06:35:21;;;;;;;8.40;4.40;;;4.50;99.90;;;;;;5093778;28;20667;-69
2021/01/31 06:38:03;;;;;;;10.45;4.68;;;4.50;99.90;;;;;;5093870;28;20202;-69
2021/01/31 06:40:44;;;;;;;7.65;4.10;;;4.40;99.90;;;;;;5093648;28;20691;-69
2021/01/31 06:43:23;;;;;;;7.95;3.72;;;4.30;99.90;;;;;;5094033;28;20237;-69
2021/01/31 06:45:58;;;;;;;8.48;4.88;;;4.20;99.90;;;;;;5093679;28;20570;-69
2021/01/31 06:48:44;;;;;;;9.13;4.15;;;4.10;99.90;;;;;;5093875;28;20205;-69
2021/01/31 06:51:27;;;;;;;6.78;4.50;;;4.10;99.90;;;;;;5093804;28;20203;-69
2021/01/31 06:54:33;;;;;;;7.78;4.60;;;4.10;99.90;;;;;;5093784;28;20226;-69
2021/01/31 06:57:20;;;;;;;9.85;4.93;;;4.30;99.90;;;;;;5075775;28;20262;-69
2021/01/31 07:00:26;;;;;;;10.80;4.75;;;4.30;99.90;;;;;;5097702;28;20583;-69
2021/01/31 07:03:18;;;;;;;9.23;4.65;;;4.20;99.90;;;;;;5066979;28;20221;-69
2021/01/31 07:06:02;;;;;;;8.90;5.03;;;4.30;99.90;;;;;;5097591;28;20198;-69
2021/01/31 07:09:13;;;;;;;8.48;4.15;;;4.30;99.90;;;;;;5097674;28;20668;-69
2021/01/31 07:11:45;;;;;;;6.88;3.83;;;4.40;99.90;;;;;;5097680;28;20213;-70
2021/01/31 07:14:29;;;;;;;9.20;4.78;;;4.40;99.90;;;;;;5097771;28;20190;-69
2021/01/31 07:17:03;;;;;;;6.45;3.92;;;4.50;99.90;;;;;;5097179;28;20240;-69
2021/01/31 07:19:35;;;;;;;10.27;4.70;;;4.60;99.90;;;;;;5097408;28;20218;-69
2021/01/31 07:22:05;;;;;;;10.93;6.32;;;4.60;99.90;;;;;;5097386;28;20217;-69
2021/01/31 07:24:44;;;;;;;8.20;4.95;;;4.60;99.90;;;;;;5097120;28;20224;-69
2021/01/31 07:27:18;;;;;;;10.88;4.15;;;4.50;99.90;;;;;;5097136;28;20202;-69
2021/01/31 07:29:53;;;;;;;6.40;4.47;;;4.60;99.90;;;;;;5097406;28;20201;-69
2021/01/31 07:32:26;;;;;;;9.02;4.57;;;4.70;99.90;;;;;;5097119;28;20228;-69
2021/01/31 07:34:58;;;;;;;9.82;4.47;;;4.80;99.90;;;;;;5097281;28;20205;-69
2021/01/31 07:37:25;;;;;;;6.25;3.95;;;4.80;99.90;;;;;;5097064;28;20201;-69
2021/01/31 07:40:00;;;;;;;6.47;4.10;;;4.90;99.90;;;;;;5096826;28;20590;-69
2021/01/31 07:42:28;;;;;;;6.50;4.45;;;4.80;99.90;;;;;;5096996;28;20226;-69
2021/01/31 07:45:05;;;;;;;8.45;3.28;;;4.70;99.90;;;;;;5097075;28;20198;-69
2021/01/31 07:47:32;;;;;;;6.68;4.22;;;4.60;99.90;;;;;;5096743;28;20240;-69
2021/01/31 07:50:39;;;;;;;7.55;4.80;;;4.70;99.90;;;;;;5096820;28;20195;-69
2021/01/31 07:53:07;;;;;;;5.65;3.60;;;4.70;99.90;;;;;;5096589;28;20707;-69
2021/01/31 07:55:44;;;;;;;8.35;3.88;;;4.80;99.90;;;;;;5096762;28;20202;-70
2021/01/31 07:58:41;;;;;;;6.68;4.40;;;4.90;99.90;;;;;;5096797;28;20209;-69
2021/01/31 08:01:35;;;;;;;9.20;4.97;;;5.00;99.90;;;;;;5096663;28;20395;-69
2021/01/31 08:04:34;;;;;;;7.22;3.92;;;5.10;99.90;;;;;;5096593;28;20222;-69
2021/01/31 08:07:04;;;;;;;10.25;5.20;;;5.20;99.90;;;;;;5085794;28;20228;-69
2021/01/31 08:09:53;;;;;;;7.50;4.85;;;5.10;99.90;;;;;;5095966;28;20200;-70
2021/01/31 08:12:19;;;;;;;12.35;5.18;;;5.20;99.90;;;;;;5096399;28;20286;-69
2021/01/31 08:15:03;;;;;;;8.27;4.30;;;5.00;99.90;;;;;;5096507;28;20258;-69
2021/01/31 08:18:07;;;;;;;7.80;4.88;;;4.90;99.90;;;;;;5094833;28;20202;-69
2021/01/31 08:20:42;;;;;;;9.55;5.22;;;4.90;99.90;;;;;;5096332;28;20258;-69
2021/01/31 08:23:51;;;;;;;8.85;5.22;;;4.90;99.90;;;;;;5096255;28;20574;-69
2021/01/31 08:26:39;;;;;;;8.27;4.47;;;4.90;99.90;;;;;;5096047;28;20220;-69
2021/01/31 08:29:21;;;;;;;5.63;4.20;;;5.00;99.90;;;;;;5096182;28;20194;-69
2021/01/31 08:32:11;;;;;;;7.40;4.30;;;5.10;99.90;;;;;;5095862;28;20210;-69
2021/01/31 08:35:03;;;;;;;8.05;4.93;;;5.30;99.90;;;;;;5095692;28;20297;-69
2021/01/31 08:37:30;;;;;;;6.63;3.75;;;5.40;99.90;;;;;;5095707;28;20664;-69
2021/01/31 08:39:56;;;;;;;11.10;5.03;;;5.50;99.90;;;;;;5095921;28;20237;-69
2021/01/31 08:42:24;;;;;;;9.70;4.90;;;5.50;99.90;;;;;;5095961;28;20222;-69
2021/01/31 08:44:57;;;;;;;7.13;4.03;;;5.60;99.90;;;;;;5095912;28;20226;-70
2021/01/31 08:47:24;;;;;;;6.85;3.78;;;5.80;99.90;;;;;;5095310;28;20214;-69
2021/01/31 08:50:02;;;;;;;9.35;4.95;;;5.90;99.90;;;;;;5095825;28;20202;-69
2021/01/31 08:52:29;;;;;;;9.20;4.32;;;6.00;99.90;;;;;;5095871;28;20218;-69
2021/01/31 08:55:04;;;;;;;7.53;4.22;;;6.00;99.90;;;;;;5095644;28;20251;-69
2021/01/31 08:57:32;;;;;;;8.23;4.55;;;6.10;99.90;;;;;;5095087;28;20205;-69
2021/01/31 09:00:05;;;;;;;8.48;4.15;;;6.10;99.90;;;;;;5095446;28;20222;-69
2021/01/31 09:02:32;;;;;;;6.95;4.15;;;6.10;99.90;;;;;;5095727;28;20228;-70
2021/01/31 09:05:06;;;;;;;8.57;4.75;;;6.20;99.90;;;;;;5095918;28;20292;-69
2021/01/31 09:07:35;;;;;;;8.63;4.35;;;6.20;99.90;;;;;;5095543;28;20293;-69
2021/01/31 09:10:07;;;;;;;6.40;3.80;;;6.20;99.90;;;;;;5095670;28;20194;-69
2021/01/31 09:12:35;;;;;;;8.82;4.10;;;6.30;99.90;;;;;;5095462;28;20316;-69
2021/01/31 09:15:08;;;;;;;6.55;3.78;;;6.30;99.90;;;;;;5095639;28;20202;-69
2021/01/31 09:17:34;;;;;;;8.88;4.15;;;6.30;99.90;;;;;;5095163;28;20202;-69
2021/01/31 09:20:11;;;;;;;7.18;4.20;;;6.40;99.90;;;;;;5094691;28;20214;-69
2021/01/31 09:22:40;;;;;;;5.78;3.95;;;6.40;99.90;;;;;;5094697;28;20317;-69
2021/01/31 09:25:09;;;;;;;7.22;3.97;;;6.40;99.90;;;;;;5095145;28;20202;-69
2021/01/31 09:27:46;;;;;;;6.32;3.78;;;6.40;99.90;;;;;;5094817;28;20202;-69
2021/01/31 09:30:17;;;;;;;7.43;4.18;;;6.40;99.90;;;;;;5095040;28;20201;-69
2021/01/31 09:32:47;;;;;;;7.93;4.13;;;6.40;99.90;;;;;;5094809;28;20236;-70
2021/01/31 09:35:19;;;;;;;7.38;4.20;;;6.30;99.90;;;;;;5095022;28;20197;-69
2021/01/31 09:37:45;;;;;;;7.32;4.68;;;6.00;99.90;;;;;;5094696;28;20293;-69
2021/01/31 09:40:14;;;;;;;8.98;4.00;;;5.90;99.90;;;;;;5094806;28;20254;-69
2021/01/31 09:42:44;;;;;;;8.05;4.95;;;6.00;99.90;;;;;;5094827;28;20230;-69
2021/01/31 09:45:30;;;;;;;7.72;4.65;;;6.10;99.90;;;;;;5094718;28;20569;-70
2021/01/31 09:47:57;;;;;;;7.10;4.32;;;6.30;99.90;;;;;;5094406;28;20219;-69
2021/01/31 09:50:24;;;;;;;8.57;4.90;;;6.30;99.90;;;;;;5094476;28;20198;-69
2021/01/31 09:52:51;;;;;;;7.75;4.75;;;6.30;99.90;;;;;;5094409;28;20226;-70
2021/01/31 09:55:30;;;;;;;10.50;5.28;;;6.30;99.90;;;;;;5094496;28;20281;-69
2021/01/31 09:57:58;;;;;;;7.95;4.93;;;6.40;99.90;;;;;;5094424;28;20201;-69
2021/01/31 10:00:27;;;;;;;7.90;4.68;;;6.40;99.90;;;;;;5094158;28;20225;-70
2021/01/31 10:03:01;;;;;;;7.35;4.60;;;6.50;99.90;;;;;;5094173;28;20226;-69
2021/01/31 10:05:27;;;;;;;7.80;4.65;;;6.40;99.90;;;;;;5094034;28;20206;-69
2021/01/31 10:08:02;;;;;;;8.93;4.30;;;6.40;99.90;;;;;;5094484;28;20207;-69
2021/01/31 10:10:36;;;;;;;10.73;5.32;;;6.50;99.90;;;;;;5094266;28;20616;-69
2021/01/31 10:13:20;;;;;;;7.43;4.35;;;6.50;99.90;;;;;;5094334;28;20225;-69
2021/01/31 10:15:52;;;;;;;9.32;4.47;;;6.60;99.90;;;;;;5094067;28;20202;-69
2021/01/31 10:18:29;;;;;;;8.18;4.63;;;6.70;99.90;;;;;;5094204;28;20208;-69
2021/01/31 10:21:15;;;;;;;9.73;4.55;;;6.90;99.90;;;;;;5094133;28;20316;-69
2021/01/31 10:23:42;;;;;;;6.55;4.68;;;6.90;99.90;;;;;;5093864;28;20316;-69
2021/01/31 10:26:14;;;;;;;6.78;4.50;;;6.90;99.90;;;;;;5093861;28;20206;-69
2021/01/31 10:28:47;;;;;;;10.10;5.32;;;7.00;99.90;;;;;;5094085;28;20208;-69
2021/01/31 10:31:28;;;;;;;8.35;4.97;;;6.90;99.90;;;;;;5093984;28;20206;-70
2021/01/31 10:33:56;;;;;;;9.45;4.53;;;6.90;99.90;;;;;;5093998;28;20221;-69
2021/01/31 10:36:38;;;;;;;11.73;5.50;;;6.80;99.90;;;;;;5093673;28;20283;-69
2021/01/31 10:39:25;;;;;;;9.88;4.40;;;6.90;99.90;;;;;;5093828;28;20251;-69
2021/01/31 10:41:53;;;;;;;6.68;4.65;;;7.00;99.90;;;;;;5093821;28;20209;-70
2021/01/31 10:44:25;;;;;;;8.02;5.03;;;7.10;99.90;;;;;;5093995;28;20206;-69
2021/01/31 10:46:52;;;;;;;8.88;5.18;;;7.10;99.90;;;;;;5093542;28;20231;-69
2021/01/31 10:49:18;;;;;;;9.13;5.25;;;7.00;99.90;;;;;;5093768;28;20205;-69
2021/01/31 10:51:46;;;;;;;7.07;4.93;;;7.10;99.90;;;;;;5093807;28;20297;-69
2021/01/31 10:54:13;;;;;;;8.10;5.22;;;7.30;99.90;;;;;;5093844;28;20240;-70
2021/01/31 10:56:40;;;;;;;10.85;5.05;;;7.40;99.90;;;;;;5093246;28;20197;-69
2021/01/31 10:59:06;;;;;;;11.20;5.18;;;7.30;99.90;;;;;;5093589;28;20606;-69
2021/01/31 11:01:33;;;;;;;9.15;5.07;;;7.30;99.90;;;;;;5093626;28;20202;-69
2021/01/31 11:04:00;;;;;;;10.63;5.40;;;7.40;99.90;;;;;;5093622;28;20312;-69
2021/01/31 11:06:27;;;;;;;9.95;5.32;;;7.40;99.90;;;;;;5093305;28;20204;-69
2021/01/31 11:08:54;;;;;;;8.68;5.30;;;7.40;99.90;;;;;;5093502;28;20206;-69
2021/01/31 11:11:21;;;;;;;10.27;4.65;;;7.40;99.90;;;;;;5093600;28;20347;-69
2021/01/31 11:13:49;;;;;;;9.65;4.80;;;7.40;99.90;;;;;;5093495;28;20248;-69
2021/01/31 11:16:15;;;;;;;8.75;4.75;;;7.40;99.90;;;;;;5093214;28;20288;-69
2021/01/31 11:18:42;;;;;;;10.43;4.53;;;7.50;99.90;;;;;;5093591;28;20198;-69
2021/01/31 11:21:09;;;;;;;9.48;5.05;;;7.60;99.90;;;;;;5093348;28;20232;-69
2021/01/31 11:23:35;;;;;;;6.85;4.30;;;7.60;99.90;;;;;;5093163;28;20715;-69
2021/01/31 11:26:01;;;;;;;7.00;4.25;;;7.70;99.90;;;;;;5093053;28;20285;-69
2021/01/31 11:28:28;;;;;;;8.43;5.15;;;7.80;99.90;;;;;;5093378;28;20301;-69
2021/01/31 11:30:54;;;;;;;8.73;5.40;;;7.70;99.90;;;;;;5093240;28;20690;-69
2021/01/31 11:33:20;;;;;;;7.28;5.00;;;7.60;99.90;;;;;;5093233;28;20229;-69
2021/01/31 11:35:47;;;;;;;8.35;4.55;;;7.80;99.90;;;;;;5093077;28;20222;-69
2021/01/31 11:38:14;;;;;;;11.02;5.47;;;7.80;99.90;;;;;;5093208;28;20208;-69
2021/01/31 11:40:43;;;;;;;8.15;4.57;;;8.00;99.90;;;;;;5093175;28;20218;-69
2021/01/31 11:43:09;;;;;;;9.68;5.25;;;8.10;99.90;;;;;;5093208;28;20222;-69
2021/01/31 11:45:35;;;;;;;10.63;5.40;;;8.10;99.90;;;;;;5096303;28;20609;-69
2021/01/31 11:48:02;;;;;;;5.57;4.22;;;8.10;99.90;;;;;;5096808;28;20304;-69
2021/01/31 11:50:28;;;;;;;6.97;4.47;;;8.10;99.90;;;;;;5096979;28;20205;-69
2021/01/31 11:52:55;;;;;;;9.43;5.43;;;8.10;99.90;;;;;;5096824;28;20236;-69
2021/01/31 11:55:21;;;;;;;7.13;4.50;;;8.10;99.90;;;;;;5096778;28;20234;-69
2021/01/31 11:57:48;;;;;;;8.05;4.97;;;8.10;99.90;;;;;;5096422;28;20293;-69
2021/01/31 12:00:17;;;;;;;7.82;4.75;;;8.10;99.90;;;;;;5096643;28;20613;-69
2021/01/31 12:02:43;;;;;;;9.48;5.00;;;8.00;99.90;;;;;;5096574;28;20235;-69
2021/01/31 12:05:12;;;;;;;5.38;3.88;;;8.10;99.90;;;;;;5096579;28;20294;-69
2021/01/31 12:07:38;;;;;;;6.20;4.78;;;7.90;99.90;;;;;;5096523;28;20232;-69
2021/01/31 12:10:08;;;;;;;10.57;5.60;;;7.80;99.90;;;;;;5096511;28;20194;-69
2021/01/31 12:12:34;;;;;;;8.35;5.28;;;7.70;99.90;;;;;;5096328;28;20305;-69
2021/01/31 12:15:01;;;;;;;10.10;5.20;;;7.60;99.90;;;;;;5096332;28;20208;-69
2021/01/31 12:17:27;;;;;;;8.15;4.60;;;7.50;99.90;;;;;;5096191;28;20218;-70
2021/01/31 12:19:53;;;;;;;11.90;5.63;;;7.50;99.90;;;;;;5096523;28;20592;-69
2021/01/31 12:22:20;;;;;;;10.23;5.40;;;7.50;99.90;;;;;;5096445;28;20256;-70
2021/01/31 12:24:46;;;;;;;8.45;5.15;;;7.50;99.90;;;;;;5096601;28;20208;-70
2021/01/31 12:27:13;;;;;;;10.50;5.68;;;7.60;99.90;;;;;;5096597;28;20202;-70
2021/01/31 12:29:40;;;;;;;9.27;4.80;;;7.70;99.90;;;;;;5096841;28;20204;-69
2021/01/31 12:32:07;;;;;;;7.65;5.13;;;7.90;99.90;;;;;;5096745;28;20222;-69
2021/01/31 12:34:33;;;;;;;9.15;4.93;;;8.00;99.90;;;;;;5096768;28;20198;-69
2021/01/31 12:36:59;;;;;;;8.77;5.22;;;8.00;99.90;;;;;;5096675;28;20609;-69
2021/01/31 12:39:26;;;;;;;9.90;5.55;;;8.00;99.90;;;;;;5096372;28;20317;-69
2021/01/31 12:41:52;;;;;;;8.48;5.05;;;8.10;99.90;;;;;;5096401;28;20205;-69
2021/01/31 12:44:19;;;;;;;8.00;5.07;;;8.10;99.90;;;;;;5096417;28;20293;-70
2021/01/31 12:46:45;;;;;;;8.70;5.32;;;8.10;99.90;;;;;;5095995;28;20244;-69
2021/01/31 12:49:12;;;;;;;10.48;5.40;;;7.90;99.90;;;;;;5096128;28;20208;-69
2021/01/31 12:51:38;;;;;;;8.68;4.95;;;7.90;99.90;;;;;;5096363;28;20209;-69
2021/01/31 12:54:05;;;;;;;9.98;4.95;;;8.00;99.90;;;;;;5095621;28;20222;-69
2021/01/31 12:56:31;;;;;;;8.10;5.43;;;7.70;99.90;;;;;;5095400;28;20345;-69
2021/01/31 12:58:57;;;;;;;8.25;4.55;;;7.60;99.90;;;;;;5095825;28;20208;-70
2021/01/31 13:01:25;;;;;;;10.32;4.97;;;7.60;99.90;;;;;;5095455;28;20221;-70
2021/01/31 13:03:54;;;;;;;10.68;5.70;;;7.60;99.90;;;;;;5095957;28;20222;-69
2021/01/31 13:06:20;;;;;;;10.73;5.82;;;7.70;99.90;;;;;;5095319;28;20208;-69
2021/01/31 13:08:47;;;;;;;8.70;4.85;;;7.70;99.90;;;;;;5095760;28;20247;-69
2021/01/31 13:11:13;;;;;;;7.30;4.60;;;7.80;99.90;;;;;;5095933;28;20583;-69
2021/01/31 13:13:39;;;;;;;8.70;5.32;;;7.90;99.90;;;;;;5095608;28;20240;-69
2021/01/31 13:16:06;;;;;;;9.88;4.72;;;8.00;99.90;;;;;;5095505;28;20206;-69
2021/01/31 13:18:33;;;;;;;10.75;5.10;;;7.90;99.90;;;;;;5096166;28;20280;-69